sensor_id;sensor_type;location;lat;lon;timestamp;pressure;altitude;pressure_sealevel;temperature;humidity
79236;BME280;69062;47.460;18.812;2024-01-30T00:00:15;102557.88;;;-2.41;82.67
79236;BME280;69062;47.460;18.812;2024-01-30T00:02:18;102561.19;;;-2.45;82.55
79236;BME280;69062;47.460;18.812;2024-01-30T00:04:20;102553.22;;;-2.50;83.12
79236;BME280;69062;47.460;18.812;2024-01-30T00:06:23;102551.72;;;-2.45;82.75
79236;BME280;69062;47.460;18.812;2024-01-30T00:08:26;102552.66;;;-2.43;82.45
79236;BME280;69062;47.460;18.812;2024-01-30T00:10:29;102551.63;;;-2.46;82.61
79236;BME280;69062;47.460;18.812;2024-01-30T00:12:32;102557.28;;;-2.55;82.73
79236;BME280;69062;47.460;18.812;2024-01-30T00:14:35;102557.22;;;-2.57;82.78
79236;BME280;69062;47.460;18.812;2024-01-30T00:16:37;102556.63;;;-2.51;82.56
79236;BME280;69062;47.460;18.812;2024-01-30T00:18:40;102552.06;;;-2.57;82.69
79236;BME280;69062;47.460;18.812;2024-01-30T00:20:43;102548.16;;;-2.68;83.10
79236;BME280;69062;47.460;18.812;2024-01-30T00:22:46;102558.81;;;-2.60;83.03
79236;BME280;69062;47.460;18.812;2024-01-30T00:24:49;102566.44;;;-2.63;82.90
79236;BME280;69062;47.460;18.812;2024-01-30T00:26:52;102563.16;;;-2.59;82.93
79236;BME280;69062;47.460;18.812;2024-01-30T00:28:55;102568.13;;;-2.64;83.01
79236;BME280;69062;47.460;18.812;2024-01-30T00:30:58;102572.88;;;-2.54;82.84
79236;BME280;69062;47.460;18.812;2024-01-30T00:33:00;102570.78;;;-2.62;82.80
79236;BME280;69062;47.460;18.812;2024-01-30T00:35:03;102575.34;;;-2.57;82.86
79236;BME280;69062;47.460;18.812;2024-01-30T00:37:07;102581.66;;;-2.50;82.63
79236;BME280;69062;47.460;18.812;2024-01-30T00:39:10;102573.63;;;-2.56;83.05
79236;BME280;69062;47.460;18.812;2024-01-30T00:41:13;102575.22;;;-2.60;83.06
79236;BME280;69062;47.460;18.812;2024-01-30T00:43:16;102578.31;;;-2.47;82.82
79236;BME280;69062;47.460;18.812;2024-01-30T00:45:19;102583.63;;;-2.44;82.65
79236;BME280;69062;47.460;18.812;2024-01-30T00:47:21;102586.56;;;-2.56;82.97
79236;BME280;69062;47.460;18.812;2024-01-30T00:49:24;102579.63;;;-2.57;83.12
79236;BME280;69062;47.460;18.812;2024-01-30T00:51:27;102578.81;;;-2.56;82.65
79236;BME280;69062;47.460;18.812;2024-01-30T00:53:32;102580.78;;;-2.51;82.82
79236;BME280;69062;47.460;18.812;2024-01-30T00:55:35;102573.13;;;-2.47;82.15
79236;BME280;69062;47.460;18.812;2024-01-30T00:57:38;102580.63;;;-2.54;82.06
79236;BME280;69062;47.460;18.812;2024-01-30T00:59:41;102575.53;;;-2.52;82.36
79236;BME280;69062;47.460;18.812;2024-01-30T01:01:43;102573.63;;;-2.56;82.43
79236;BME280;69062;47.460;18.812;2024-01-30T01:03:46;102570.28;;;-2.54;82.34
79236;BME280;69062;47.460;18.812;2024-01-30T01:05:51;102568.63;;;-2.53;82.20
79236;BME280;69062;47.460;18.812;2024-01-30T01:07:54;102566.09;;;-2.52;82.54
79236;BME280;69062;47.460;18.812;2024-01-30T01:09:56;102564.50;;;-2.48;81.64
79236;BME280;69062;47.460;18.812;2024-01-30T01:11:59;102567.09;;;-2.48;81.42
79236;BME280;69062;47.460;18.812;2024-01-30T01:14:02;102566.81;;;-2.54;81.75
79236;BME280;69062;47.460;18.812;2024-01-30T01:16:05;102571.75;;;-2.60;81.75
79236;BME280;69062;47.460;18.812;2024-01-30T01:18:08;102566.31;;;-2.66;82.07
79236;BME280;69062;47.460;18.812;2024-01-30T01:20:11;102554.19;;;-2.67;82.08
79236;BME280;69062;47.460;18.812;2024-01-30T01:22:14;102552.56;;;-2.65;81.57
79236;BME280;69062;47.460;18.812;2024-01-30T01:24:17;102553.88;;;-2.75;82.11
79236;BME280;69062;47.460;18.812;2024-01-30T01:26:19;102546.66;;;-2.82;82.36
79236;BME280;69062;47.460;18.812;2024-01-30T01:28:22;102551.19;;;-2.77;82.49
79236;BME280;69062;47.460;18.812;2024-01-30T01:30:25;102549.44;;;-2.78;82.36
79236;BME280;69062;47.460;18.812;2024-01-30T01:32:28;102541.50;;;-2.82;82.36
79236;BME280;69062;47.460;18.812;2024-01-30T01:34:31;102542.22;;;-2.85;82.67
79236;BME280;69062;47.460;18.812;2024-01-30T01:36:34;102534.84;;;-2.75;82.22
79236;BME280;69062;47.460;18.812;2024-01-30T01:38:37;102535.13;;;-2.69;82.24
79236;BME280;69062;47.460;18.812;2024-01-30T01:40:40;102532.38;;;-2.74;82.04
79236;BME280;69062;47.460;18.812;2024-01-30T01:42:43;102532.75;;;-2.84;82.33
79236;BME280;69062;47.460;18.812;2024-01-30T01:44:46;102530.34;;;-2.81;82.58
79236;BME280;69062;47.460;18.812;2024-01-30T01:46:49;102528.75;;;-2.78;82.35
79236;BME280;69062;47.460;18.812;2024-01-30T01:48:55;102534.75;;;-2.79;82.44
79236;BME280;69062;47.460;18.812;2024-01-30T01:50:59;102533.81;;;-2.81;82.50
79236;BME280;69062;47.460;18.812;2024-01-30T01:53:03;102536.22;;;-2.84;82.93
79236;BME280;69062;47.460;18.812;2024-01-30T01:55:07;102536.94;;;-2.88;83.22
79236;BME280;69062;47.460;18.812;2024-01-30T01:57:13;102528.22;;;-2.90;83.26
79236;BME280;69062;47.460;18.812;2024-01-30T01:59:16;102529.50;;;-2.80;83.13
79236;BME280;69062;47.460;18.812;2024-01-30T02:01:20;102534.53;;;-2.83;84.07
79236;BME280;69062;47.460;18.812;2024-01-30T02:03:23;102535.97;;;-2.90;84.60
79236;BME280;69062;47.460;18.812;2024-01-30T02:05:26;102533.81;;;-2.81;84.87
79236;BME280;69062;47.460;18.812;2024-01-30T02:07:29;102530.38;;;-2.80;86.02
79236;BME280;69062;47.460;18.812;2024-01-30T02:09:32;102529.84;;;-2.72;85.99
79236;BME280;69062;47.460;18.812;2024-01-30T02:11:35;102525.81;;;-2.66;86.15
79236;BME280;69062;47.460;18.812;2024-01-30T02:13:41;102527.78;;;-2.60;86.46
79236;BME280;69062;47.460;18.812;2024-01-30T02:15:43;102528.84;;;-2.55;86.50
79236;BME280;69062;47.460;18.812;2024-01-30T02:17:46;102525.84;;;-2.45;86.22
79236;BME280;69062;47.460;18.812;2024-01-30T02:19:49;102520.78;;;-2.42;85.68
79236;BME280;69062;47.460;18.812;2024-01-30T02:21:52;102523.44;;;-2.40;85.85
79236;BME280;69062;47.460;18.812;2024-01-30T02:23:55;102522.84;;;-2.33;85.30
79236;BME280;69062;47.460;18.812;2024-01-30T02:25:59;102526.31;;;-2.33;83.85
79236;BME280;69062;47.460;18.812;2024-01-30T02:28:02;102527.09;;;-2.35;82.93
79236;BME280;69062;47.460;18.812;2024-01-30T02:30:05;102520.56;;;-2.46;82.82
79236;BME280;69062;47.460;18.812;2024-01-30T02:32:08;102523.81;;;-2.52;83.44
79236;BME280;69062;47.460;18.812;2024-01-30T02:34:11;102526.47;;;-2.51;83.42
79236;BME280;69062;47.460;18.812;2024-01-30T02:36:14;102528.34;;;-2.46;83.29
79236;BME280;69062;47.460;18.812;2024-01-30T02:38:18;102523.06;;;-2.50;84.15
79236;BME280;69062;47.460;18.812;2024-01-30T02:40:21;102519.47;;;-2.53;84.25
79236;BME280;69062;47.460;18.812;2024-01-30T02:42:23;102522.94;;;-2.53;85.35
79236;BME280;69062;47.460;18.812;2024-01-30T02:44:26;102523.38;;;-2.42;85.02
79236;BME280;69062;47.460;18.812;2024-01-30T02:46:29;102525.75;;;-2.46;85.26
79236;BME280;69062;47.460;18.812;2024-01-30T02:48:32;102520.66;;;-2.45;85.20
79236;BME280;69062;47.460;18.812;2024-01-30T02:50:34;102515.41;;;-2.46;85.15
79236;BME280;69062;47.460;18.812;2024-01-30T02:52:37;102515.97;;;-2.54;84.89
79236;BME280;69062;47.460;18.812;2024-01-30T02:54:40;102520.41;;;-2.51;85.18
79236;BME280;69062;47.460;18.812;2024-01-30T02:56:43;102519.84;;;-2.44;85.53
79236;BME280;69062;47.460;18.812;2024-01-30T02:58:46;102525.06;;;-2.42;85.67
79236;BME280;69062;47.460;18.812;2024-01-30T03:00:48;102527.59;;;-2.44;85.95
79236;BME280;69062;47.460;18.812;2024-01-30T03:02:51;102527.09;;;-2.35;86.14
79236;BME280;69062;47.460;18.812;2024-01-30T03:04:54;102524.44;;;-2.37;85.63
79236;BME280;69062;47.460;18.812;2024-01-30T03:06:57;102528.13;;;-2.32;85.04
79236;BME280;69062;47.460;18.812;2024-01-30T03:09:00;102525.34;;;-2.36;84.38
79236;BME280;69062;47.460;18.812;2024-01-30T03:11:03;102532.88;;;-2.41;84.83
79236;BME280;69062;47.460;18.812;2024-01-30T03:13:05;102536.31;;;-2.42;84.90
79236;BME280;69062;47.460;18.812;2024-01-30T03:15:08;102534.81;;;-2.37;85.23
79236;BME280;69062;47.460;18.812;2024-01-30T03:17:12;102538.53;;;-2.30;85.05
79236;BME280;69062;47.460;18.812;2024-01-30T03:19:15;102529.56;;;-2.38;84.88
79236;BME280;69062;47.460;18.812;2024-01-30T03:21:18;102539.97;;;-2.37;84.47
79236;BME280;69062;47.460;18.812;2024-01-30T03:23:20;102536.44;;;-2.39;84.73
79236;BME280;69062;47.460;18.812;2024-01-30T03:25:23;102527.03;;;-2.37;84.99
79236;BME280;69062;47.460;18.812;2024-01-30T03:27:26;102531.84;;;-2.46;85.05
79236;BME280;69062;47.460;18.812;2024-01-30T03:29:29;102536.25;;;-2.43;85.07
79236;BME280;69062;47.460;18.812;2024-01-30T03:31:32;102533.72;;;-2.42;85.41
79236;BME280;69062;47.460;18.812;2024-01-30T03:33:36;102538.84;;;-2.43;86.07
79236;BME280;69062;47.460;18.812;2024-01-30T03:35:39;102526.22;;;-2.36;85.55
79236;BME280;69062;47.460;18.812;2024-01-30T03:37:42;102524.19;;;-2.43;85.37
79236;BME280;69062;47.460;18.812;2024-01-30T03:39:44;102532.06;;;-2.40;85.37
79236;BME280;69062;47.460;18.812;2024-01-30T03:41:47;102520.97;;;-2.37;85.70
79236;BME280;69062;47.460;18.812;2024-01-30T03:43:50;102519.94;;;-2.41;85.42
79236;BME280;69062;47.460;18.812;2024-01-30T03:45:53;102523.50;;;-2.39;85.58
79236;BME280;69062;47.460;18.812;2024-01-30T03:47:55;102515.03;;;-2.35;85.00
79236;BME280;69062;47.460;18.812;2024-01-30T03:49:58;102513.22;;;-2.37;85.36
79236;BME280;69062;47.460;18.812;2024-01-30T03:52:01;102512.44;;;-2.35;85.11
79236;BME280;69062;47.460;18.812;2024-01-30T03:54:04;102507.06;;;-2.39;84.78
79236;BME280;69062;47.460;18.812;2024-01-30T03:56:07;102516.75;;;-2.35;85.21
79236;BME280;69062;47.460;18.812;2024-01-30T03:58:10;102517.06;;;-2.28;84.70
79236;BME280;69062;47.460;18.812;2024-01-30T04:00:14;102518.66;;;-2.31;84.56
79236;BME280;69062;47.460;18.812;2024-01-30T04:02:17;102516.84;;;-2.32;84.18
79236;BME280;69062;47.460;18.812;2024-01-30T04:04:20;102506.97;;;-2.42;83.75
79236;BME280;69062;47.460;18.812;2024-01-30T04:06:24;102518.91;;;-2.46;83.72
79236;BME280;69062;47.460;18.812;2024-01-30T04:08:26;102509.75;;;-2.38;83.59
79236;BME280;69062;47.460;18.812;2024-01-30T04:10:29;102504.56;;;-2.38;83.88
79236;BME280;69062;47.460;18.812;2024-01-30T04:12:32;102509.03;;;-2.34;83.90
79236;BME280;69062;47.460;18.812;2024-01-30T04:14:35;102511.19;;;-2.44;83.66
79236;BME280;69062;47.460;18.812;2024-01-30T04:16:38;102508.66;;;-2.43;83.37
79236;BME280;69062;47.460;18.812;2024-01-30T04:18:41;102504.13;;;-2.48;83.34
79236;BME280;69062;47.460;18.812;2024-01-30T04:20:45;102504.00;;;-2.52;83.10
79236;BME280;69062;47.460;18.812;2024-01-30T04:22:47;102503.84;;;-2.55;82.97
79236;BME280;69062;47.460;18.812;2024-01-30T04:24:50;102508.03;;;-2.58;83.03
79236;BME280;69062;47.460;18.812;2024-01-30T04:26:53;102508.16;;;-2.55;83.23
79236;BME280;69062;47.460;18.812;2024-01-30T04:28:56;102512.59;;;-2.53;83.21
79236;BME280;69062;47.460;18.812;2024-01-30T04:30:59;102508.28;;;-2.52;83.35
79236;BME280;69062;47.460;18.812;2024-01-30T04:33:01;102505.13;;;-2.66;82.96
79236;BME280;69062;47.460;18.812;2024-01-30T04:35:04;102505.69;;;-2.73;83.00
79236;BME280;69062;47.460;18.812;2024-01-30T04:37:12;102506.31;;;-2.79;83.13
79236;BME280;69062;47.460;18.812;2024-01-30T04:39:15;102509.56;;;-2.83;83.41
79236;BME280;69062;47.460;18.812;2024-01-30T04:41:18;102507.50;;;-2.70;82.82
79236;BME280;69062;47.460;18.812;2024-01-30T04:43:21;102510.03;;;-2.72;83.23
79236;BME280;69062;47.460;18.812;2024-01-30T04:45:24;102514.94;;;-2.78;83.01
79236;BME280;69062;47.460;18.812;2024-01-30T04:47:27;102514.31;;;-2.72;82.76
79236;BME280;69062;47.460;18.812;2024-01-30T04:49:29;102509.50;;;-2.84;82.77
79236;BME280;69062;47.460;18.812;2024-01-30T04:51:33;102517.69;;;-2.75;82.65
79236;BME280;69062;47.460;18.812;2024-01-30T04:53:35;102524.13;;;-2.85;82.89
79236;BME280;69062;47.460;18.812;2024-01-30T04:55:38;102522.78;;;-2.96;83.16
79236;BME280;69062;47.460;18.812;2024-01-30T04:57:41;102520.75;;;-3.03;83.36
79236;BME280;69062;47.460;18.812;2024-01-30T04:59:44;102523.69;;;-2.95;83.13
79236;BME280;69062;47.460;18.812;2024-01-30T05:01:46;102521.81;;;-2.98;83.00
79236;BME280;69062;47.460;18.812;2024-01-30T05:03:50;102524.88;;;-3.07;83.59
79236;BME280;69062;47.460;18.812;2024-01-30T05:05:53;102521.16;;;-3.13;83.71
79236;BME280;69062;47.460;18.812;2024-01-30T05:07:56;102529.66;;;-3.16;84.35
79236;BME280;69062;47.460;18.812;2024-01-30T05:09:59;102534.28;;;-3.09;84.73
79236;BME280;69062;47.460;18.812;2024-01-30T05:12:06;102536.28;;;-3.03;84.64
79236;BME280;69062;47.460;18.812;2024-01-30T05:14:09;102541.50;;;-3.01;84.54
79236;BME280;69062;47.460;18.812;2024-01-30T05:16:13;102538.22;;;-2.97;84.65
79236;BME280;69062;47.460;18.812;2024-01-30T05:18:16;102550.72;;;-3.07;84.67
79236;BME280;69062;47.460;18.812;2024-01-30T05:20:19;102546.59;;;-3.03;84.87
79236;BME280;69062;47.460;18.812;2024-01-30T05:22:22;102546.19;;;-2.93;84.23
79236;BME280;69062;47.460;18.812;2024-01-30T05:24:25;102549.97;;;-2.85;84.21
79236;BME280;69062;47.460;18.812;2024-01-30T05:26:29;102552.13;;;-2.95;84.10
79236;BME280;69062;47.460;18.812;2024-01-30T05:28:32;102550.72;;;-3.07;83.80
79236;BME280;69062;47.460;18.812;2024-01-30T05:30:35;102550.94;;;-3.02;83.89
79236;BME280;69062;47.460;18.812;2024-01-30T05:32:38;102553.66;;;-2.99;83.46
79236;BME280;69062;47.460;18.812;2024-01-30T05:34:41;102553.53;;;-3.02;84.60
79236;BME280;69062;47.460;18.812;2024-01-30T05:36:43;102553.53;;;-3.02;84.29
79236;BME280;69062;47.460;18.812;2024-01-30T05:38:46;102545.31;;;-2.93;83.83
79236;BME280;69062;47.460;18.812;2024-01-30T05:40:49;102549.78;;;-3.09;83.74
79236;BME280;69062;47.460;18.812;2024-01-30T05:42:52;102551.91;;;-3.00;83.70
79236;BME280;69062;47.460;18.812;2024-01-30T05:44:55;102557.75;;;-3.04;83.33
79236;BME280;69062;47.460;18.812;2024-01-30T05:46:57;102557.38;;;-3.12;83.36
79236;BME280;69062;47.460;18.812;2024-01-30T05:49:00;102559.91;;;-3.13;83.29
79236;BME280;69062;47.460;18.812;2024-01-30T05:51:09;102550.66;;;-3.08;82.89
79236;BME280;69062;47.460;18.812;2024-01-30T05:53:12;102556.31;;;-3.17;83.08
79236;BME280;69062;47.460;18.812;2024-01-30T05:55:14;102553.13;;;-3.11;82.93
79236;BME280;69062;47.460;18.812;2024-01-30T05:57:17;102550.63;;;-3.10;83.04
79236;BME280;69062;47.460;18.812;2024-01-30T05:59:20;102555.97;;;-3.24;82.87
79236;BME280;69062;47.460;18.812;2024-01-30T06:01:23;102546.59;;;-3.22;82.88
79236;BME280;69062;47.460;18.812;2024-01-30T06:03:26;102553.22;;;-3.27;82.94
79236;BME280;69062;47.460;18.812;2024-01-30T06:05:29;102549.41;;;-3.36;83.29
79236;BME280;69062;47.460;18.812;2024-01-30T06:07:32;102552.81;;;-3.37;83.33
79236;BME280;69062;47.460;18.812;2024-01-30T06:09:38;102545.28;;;-3.32;83.00
79236;BME280;69062;47.460;18.812;2024-01-30T06:11:41;102552.81;;;-3.37;83.41
79236;BME280;69062;47.460;18.812;2024-01-30T06:13:44;102554.75;;;-3.33;83.13
79236;BME280;69062;47.460;18.812;2024-01-30T06:15:46;102561.31;;;-3.39;83.37
79236;BME280;69062;47.460;18.812;2024-01-30T06:17:49;102554.66;;;-3.34;83.43
79236;BME280;69062;47.460;18.812;2024-01-30T06:19:52;102559.91;;;-3.33;83.37
79236;BME280;69062;47.460;18.812;2024-01-30T06:21:55;102552.75;;;-3.38;83.57
79236;BME280;69062;47.460;18.812;2024-01-30T06:23:58;102554.16;;;-3.45;83.39
79236;BME280;69062;47.460;18.812;2024-01-30T06:26:00;102562.41;;;-3.34;83.30
79236;BME280;69062;47.460;18.812;2024-01-30T06:28:03;102550.75;;;-3.26;83.38
79236;BME280;69062;47.460;18.812;2024-01-30T06:30:06;102555.00;;;-3.26;83.56
79236;BME280;69062;47.460;18.812;2024-01-30T06:32:09;102566.25;;;-3.26;83.37
79236;BME280;69062;47.460;18.812;2024-01-30T06:34:12;102558.06;;;-3.35;83.24
79236;BME280;69062;47.460;18.812;2024-01-30T06:36:15;102575.31;;;-3.34;83.41
79236;BME280;69062;47.460;18.812;2024-01-30T06:38:18;102567.38;;;-3.19;82.87
79236;BME280;69062;47.460;18.812;2024-01-30T06:40:20;102564.06;;;-3.17;82.90
79236;BME280;69062;47.460;18.812;2024-01-30T06:42:23;102575.13;;;-3.19;83.10
79236;BME280;69062;47.460;18.812;2024-01-30T06:44:26;102569.84;;;-3.22;82.72
79236;BME280;69062;47.460;18.812;2024-01-30T06:46:32;102568.41;;;-3.16;82.28
79236;BME280;69062;47.460;18.812;2024-01-30T06:48:35;102569.97;;;-3.19;82.50
79236;BME280;69062;47.460;18.812;2024-01-30T06:50:38;102572.88;;;-3.12;82.60
79236;BME280;69062;47.460;18.812;2024-01-30T06:52:40;102572.81;;;-3.13;82.07
79236;BME280;69062;47.460;18.812;2024-01-30T06:54:44;102573.31;;;-3.22;82.66
79236;BME280;69062;47.460;18.812;2024-01-30T06:56:47;102567.38;;;-3.19;82.65
79236;BME280;69062;47.460;18.812;2024-01-30T06:58:50;102575.41;;;-3.13;82.79
79236;BME280;69062;47.460;18.812;2024-01-30T07:00:54;102571.34;;;-3.08;82.59
79236;BME280;69062;47.460;18.812;2024-01-30T07:02:57;102575.84;;;-3.04;82.88
79236;BME280;69062;47.460;18.812;2024-01-30T07:04:59;102574.06;;;-3.05;82.94
79236;BME280;69062;47.460;18.812;2024-01-30T07:07:03;102573.94;;;-2.89;83.01
79236;BME280;69062;47.460;18.812;2024-01-30T07:09:07;102575.72;;;-2.88;83.06
79236;BME280;69062;47.460;18.812;2024-01-30T07:11:11;102575.84;;;-2.85;83.07
79236;BME280;69062;47.460;18.812;2024-01-30T07:13:27;102570.59;;;-2.86;82.38
79236;BME280;69062;47.460;18.812;2024-01-30T07:15:31;102573.59;;;-2.77;83.11
79236;BME280;69062;47.460;18.812;2024-01-30T07:17:35;102574.75;;;-2.70;82.83
79236;BME280;69062;47.460;18.812;2024-01-30T07:19:38;102581.06;;;-2.64;82.86
79236;BME280;69062;47.460;18.812;2024-01-30T07:21:40;102571.88;;;-2.57;82.64
79236;BME280;69062;47.460;18.812;2024-01-30T07:23:43;102573.22;;;-2.46;82.85
79236;BME280;69062;47.460;18.812;2024-01-30T07:25:46;102570.00;;;-2.40;82.81
79236;BME280;69062;47.460;18.812;2024-01-30T07:27:57;102567.59;;;-2.36;82.87
79236;BME280;69062;47.460;18.812;2024-01-30T07:30:12;102567.47;;;-2.18;83.71
79236;BME280;69062;47.460;18.812;2024-01-30T07:32:21;102570.06;;;-1.97;82.83
79236;BME280;69062;47.460;18.812;2024-01-30T07:34:28;102560.69;;;-1.95;83.11
79236;BME280;69062;47.460;18.812;2024-01-30T07:36:34;102564.81;;;-1.55;84.11
79236;BME280;69062;47.460;18.812;2024-01-30T07:38:38;102557.97;;;-0.85;83.99
79236;BME280;69062;47.460;18.812;2024-01-30T07:40:41;102553.81;;;-0.56;81.71
79236;BME280;69062;47.460;18.812;2024-01-30T07:42:43;102555.41;;;-0.08;81.58
79236;BME280;69062;47.460;18.812;2024-01-30T07:44:46;102554.13;;;0.33;80.65
79236;BME280;69062;47.460;18.812;2024-01-30T07:46:49;102549.75;;;0.89;80.68
79236;BME280;69062;47.460;18.812;2024-01-30T07:48:54;102553.16;;;1.83;77.86
79236;BME280;69062;47.460;18.812;2024-01-30T07:51:00;102554.50;;;2.79;74.14
79236;BME280;69062;47.460;18.812;2024-01-30T07:53:03;102553.06;;;3.38;71.03
79236;BME280;69062;47.460;18.812;2024-01-30T07:55:12;102552.88;;;4.30;68.06
79236;BME280;69062;47.460;18.812;2024-01-30T07:57:18;102547.66;;;4.95;66.77
79236;BME280;69062;47.460;18.812;2024-01-30T07:59:21;102551.50;;;5.28;64.68
79236;BME280;69062;47.460;18.812;2024-01-30T08:01:27;102557.09;;;5.59;62.73
79236;BME280;69062;47.460;18.812;2024-01-30T08:03:35;102557.53;;;6.03;61.62
79236;BME280;69062;47.460;18.812;2024-01-30T08:05:38;102563.00;;;6.36;59.60
79236;BME280;69062;47.460;18.812;2024-01-30T08:07:42;102554.13;;;6.18;59.59
79236;BME280;69062;47.460;18.812;2024-01-30T08:09:45;102553.31;;;6.25;59.42
79236;BME280;69062;47.460;18.812;2024-01-30T08:11:48;102561.38;;;6.58;58.99
79236;BME280;69062;47.460;18.812;2024-01-30T08:13:53;102556.38;;;7.04;57.31
79236;BME280;69062;47.460;18.812;2024-01-30T08:15:56;102554.63;;;7.15;57.57
79236;BME280;69062;47.460;18.812;2024-01-30T08:17:59;102555.56;;;7.31;56.97
79236;BME280;69062;47.460;18.812;2024-01-30T08:20:04;102556.56;;;7.82;55.19
79236;BME280;69062;47.460;18.812;2024-01-30T08:22:07;102560.88;;;7.50;55.36
79236;BME280;69062;47.460;18.812;2024-01-30T08:24:10;102565.22;;;7.25;56.04
79236;BME280;69062;47.460;18.812;2024-01-30T08:26:13;102567.78;;;7.15;56.57
79236;BME280;69062;47.460;18.812;2024-01-30T08:28:15;102558.25;;;7.48;56.18
79236;BME280;69062;47.460;18.812;2024-01-30T08:30:22;102578.88;;;6.56;58.71
79236;BME280;69062;47.460;18.812;2024-01-30T08:32:25;102571.31;;;5.84;59.74
79236;BME280;69062;47.460;18.812;2024-01-30T08:34:28;102576.88;;;6.17;59.90
79236;BME280;69062;47.460;18.812;2024-01-30T08:36:31;102579.44;;;6.11;59.73
79236;BME280;69062;47.460;18.812;2024-01-30T08:38:37;102581.19;;;6.09;59.73
79236;BME280;69062;47.460;18.812;2024-01-30T08:40:40;102580.53;;;6.39;59.08
79236;BME280;69062;47.460;18.812;2024-01-30T08:42:43;102571.22;;;7.02;58.17
79236;BME280;69062;47.460;18.812;2024-01-30T08:44:45;102571.16;;;6.85;57.14
79236;BME280;69062;47.460;18.812;2024-01-30T08:46:48;102577.41;;;7.16;57.36
79236;BME280;69062;47.460;18.812;2024-01-30T08:48:52;102572.25;;;7.44;56.50
79236;BME280;69062;47.460;18.812;2024-01-30T08:50:55;102575.53;;;6.88;58.33
79236;BME280;69062;47.460;18.812;2024-01-30T08:53:01;102571.09;;;6.69;58.24
79236;BME280;69062;47.460;18.812;2024-01-30T08:55:05;102573.53;;;6.41;59.64
79236;BME280;69062;47.460;18.812;2024-01-30T08:57:11;102579.84;;;6.72;59.38
79236;BME280;69062;47.460;18.812;2024-01-30T08:59:14;102572.16;;;7.13;58.09
79236;BME280;69062;47.460;18.812;2024-01-30T09:01:17;102571.28;;;7.16;58.48
79236;BME280;69062;47.460;18.812;2024-01-30T09:03:19;102574.06;;;7.72;56.48
79236;BME280;69062;47.460;18.812;2024-01-30T09:05:22;102575.81;;;8.59;54.63
79236;BME280;69062;47.460;18.812;2024-01-30T09:07:25;102577.59;;;7.90;54.69
79236;BME280;69062;47.460;18.812;2024-01-30T09:09:28;102574.06;;;7.92;56.03
79236;BME280;69062;47.460;18.812;2024-01-30T09:11:31;102567.03;;;7.88;55.42
79236;BME280;69062;47.460;18.812;2024-01-30T09:13:33;102569.72;;;7.97;54.85
79236;BME280;69062;47.460;18.812;2024-01-30T09:15:36;102566.13;;;8.60;53.88
79236;BME280;69062;47.460;18.812;2024-01-30T09:17:39;102560.88;;;8.63;53.36
79236;BME280;69062;47.460;18.812;2024-01-30T09:19:42;102564.25;;;9.00;53.51
79236;BME280;69062;47.460;18.812;2024-01-30T09:21:45;102572.13;;;9.09;53.02
79236;BME280;69062;47.460;18.812;2024-01-30T09:23:48;102567.72;;;9.05;52.11
79236;BME280;69062;47.460;18.812;2024-01-30T09:25:50;102565.06;;;9.11;52.86
79236;BME280;69062;47.460;18.812;2024-01-30T09:27:53;102561.13;;;9.82;51.20
79236;BME280;69062;47.460;18.812;2024-01-30T09:29:56;102564.81;;;9.58;51.83
79236;BME280;69062;47.460;18.812;2024-01-30T09:31:59;102559.94;;;8.85;52.99
79236;BME280;69062;47.460;18.812;2024-01-30T09:34:02;102563.53;;;8.21;55.51
79236;BME280;69062;47.460;18.812;2024-01-30T09:36:05;102565.25;;;7.41;57.56
79236;BME280;69062;47.460;18.812;2024-01-30T09:38:08;102563.34;;;7.02;59.43
79236;BME280;69062;47.460;18.812;2024-01-30T09:40:11;102565.31;;;7.77;57.11
79236;BME280;69062;47.460;18.812;2024-01-30T09:42:24;102567.03;;;7.56;57.48
79236;BME280;69062;47.460;18.812;2024-01-30T09:44:29;102564.97;;;6.71;60.22
79236;BME280;69062;47.460;18.812;2024-01-30T09:46:34;102571.09;;;6.70;60.56
79236;BME280;69062;47.460;18.812;2024-01-30T09:48:37;102552.16;;;7.84;58.29
79236;BME280;69062;47.460;18.812;2024-01-30T09:50:41;102560.84;;;8.70;55.79
79236;BME280;69062;47.460;18.812;2024-01-30T09:52:44;102559.88;;;8.94;54.95
79236;BME280;69062;47.460;18.812;2024-01-30T09:54:49;102552.09;;;8.57;56.00
79236;BME280;69062;47.460;18.812;2024-01-30T09:56:53;102564.41;;;7.88;56.70
79236;BME280;69062;47.460;18.812;2024-01-30T09:58:56;102558.22;;;7.37;58.54
79236;BME280;69062;47.460;18.812;2024-01-30T10:00:59;102553.88;;;7.67;59.34
79236;BME280;69062;47.460;18.812;2024-01-30T10:03:02;102556.53;;;7.88;59.24
79236;BME280;69062;47.460;18.812;2024-01-30T10:05:05;102560.78;;;7.22;60.10
79236;BME280;69062;47.460;18.812;2024-01-30T10:07:10;102560.06;;;7.84;59.10
79236;BME280;69062;47.460;18.812;2024-01-30T10:09:13;102549.53;;;8.19;58.94
79236;BME280;69062;47.460;18.812;2024-01-30T10:11:16;102559.16;;;8.29;57.60
79236;BME280;69062;47.460;18.812;2024-01-30T10:13:19;102560.91;;;8.20;57.97
79236;BME280;69062;47.460;18.812;2024-01-30T10:15:22;102560.91;;;8.20;57.95
79236;BME280;69062;47.460;18.812;2024-01-30T10:17:25;102554.75;;;8.47;57.23
79236;BME280;69062;47.460;18.812;2024-01-30T10:19:37;102554.78;;;8.09;58.16
79236;BME280;69062;47.460;18.812;2024-01-30T10:21:40;102556.41;;;7.10;61.01
79236;BME280;69062;47.460;18.812;2024-01-30T10:23:44;102549.47;;;7.32;61.20
79236;BME280;69062;47.460;18.812;2024-01-30T10:25:51;102559.72;;;6.67;62.14
79236;BME280;69062;47.460;18.812;2024-01-30T10:27:54;102556.25;;;6.77;62.24
79236;BME280;69062;47.460;18.812;2024-01-30T10:29:58;102551.81;;;6.68;62.52
79236;BME280;69062;47.460;18.812;2024-01-30T10:32:05;102553.69;;;6.94;62.41
79236;BME280;69062;47.460;18.812;2024-01-30T10:34:08;102559.03;;;7.15;61.58
79236;BME280;69062;47.460;18.812;2024-01-30T10:36:28;102547.38;;;6.58;63.31
79236;BME280;69062;47.460;18.812;2024-01-30T10:38:32;102544.53;;;6.23;64.15